Time;durP1;ratioP1;P1;durP2;ratioP2;P2;SDS_P1;SDS_P2;PMS_P1;PMS_P2;Temp;Humidity;BMP_temperature;BMP_pressure;BME280_temperature;BME280_humidity;BME280_pressure;Samples;Min_cycle;Max_cycle;Signal;HPM_P1;HPM_P2
2022/05/28 00:01:40;;;;;;;9.63;0.63;;;11.50;99.90;;;;;;5078993;28;20131;-76
2022/05/28 00:04:07;;;;;;;9.10;0.73;;;11.50;99.90;;;;;;5060774;28;20473;-76
2022/05/28 00:06:34;;;;;;;8.60;0.70;;;11.50;99.90;;;;;;5074901;28;20420;-75
2022/05/28 00:09:00;;;;;;;11.90;0.95;;;11.50;99.90;;;;;;5059635;28;20044;-76
2022/05/28 00:11:29;;;;;;;11.27;0.75;;;11.60;99.90;;;;;;5075103;28;20048;-77
2022/05/28 00:13:55;;;;;;;10.07;0.68;;;11.60;99.90;;;;;;5076853;28;20157;-76
2022/05/28 00:16:21;;;;;;;10.00;0.57;;;11.70;99.90;;;;;;5076702;28;20056;-77
2022/05/28 00:18:49;;;;;;;11.48;0.68;;;11.70;99.90;;;;;;5076461;28;20048;-74
2022/05/28 00:21:15;;;;;;;5.90;0.70;;;11.70;99.90;;;;;;5091999;28;20062;-75
2022/05/28 00:23:44;;;;;;;12.43;0.73;;;11.70;99.90;;;;;;5094482;28;20134;-76
2022/05/28 00:26:09;;;;;;;14.55;0.88;;;11.70;99.90;;;;;;5099138;28;20185;-75
2022/05/28 00:28:35;;;;;;;13.20;1.50;;;11.80;99.90;;;;;;5099305;28;20178;-76
2022/05/28 00:31:01;;;;;;;9.90;0.95;;;11.80;99.90;;;;;;5101189;28;20054;-77
2022/05/28 00:33:30;;;;;;;6.87;0.60;;;11.80;99.90;;;;;;5100440;28;20044;-77
2022/05/28 00:35:56;;;;;;;9.80;1.08;;;11.90;99.90;;;;;;5100325;28;20073;-75
2022/05/28 00:38:24;;;;;;;9.13;0.70;;;11.70;99.90;;;;;;5097677;28;20052;-75
2022/05/28 00:40:52;;;;;;;7.70;0.63;;;11.50;99.90;;;;;;5095887;28;20104;-76
2022/05/28 00:43:19;;;;;;;12.95;0.70;;;11.20;99.90;;;;;;5095399;28;20088;-75
2022/05/28 00:45:48;;;;;;;9.93;0.57;;;11.00;99.90;;;;;;5092796;28;20055;-75
2022/05/28 00:48:24;;;;;;;9.35;0.75;;;10.90;99.90;;;;;;5094142;28;20118;-75
2022/05/28 00:50:51;;;;;;;10.00;0.60;;;10.80;99.90;;;;;;5094031;28;20044;-75
2022/05/28 00:53:16;;;;;;;6.82;0.63;;;10.60;99.90;;;;;;5092416;28;20036;-75
2022/05/28 00:55:42;;;;;;;7.97;0.75;;;10.60;99.90;;;;;;5074163;28;20044;-74
2022/05/28 00:58:09;;;;;;;6.25;0.50;;;10.50;99.90;;;;;;5073741;28;20045;-75
2022/05/28 01:00:36;;;;;;;7.18;0.60;;;10.30;99.90;;;;;;5073544;28;20128;-75
2022/05/28 01:03:12;;;;;;;;;;;10.20;99.90;;;;;;5092522;28;20083;-75
2022/05/28 01:05:52;;;;;;;5.47;0.50;;;10.20;99.90;;;;;;5092291;28;20272;-74
2022/05/28 01:08:39;;;;;;;5.45;0.50;;;10.10;99.90;;;;;;5093315;28;20044;-74
2022/05/28 01:11:22;;;;;;;2.97;0.50;;;9.90;99.90;;;;;;5094144;28;20083;-75
2022/05/28 01:13:56;;;;;;;4.97;0.43;;;9.80;99.90;;;;;;5091786;28;20071;-75
2022/05/28 01:16:40;;;;;;;9.80;0.65;;;9.80;99.90;;;;;;5094029;28;20545;-75
2022/05/28 01:19:43;;;;;;;11.43;0.70;;;9.60;99.90;;;;;;5092554;28;20502;-75
2022/05/28 01:22:38;;;;;;;8.75;0.50;;;9.50;99.90;;;;;;5095176;28;20056;-76
2022/05/28 01:25:24;;;;;;;9.80;0.55;;;9.60;99.90;;;;;;5096968;28;20054;-75
2022/05/28 01:27:58;;;;;;;9.57;0.60;;;9.50;99.90;;;;;;5092180;28;20056;-75
2022/05/28 01:30:24;;;;;;;7.68;0.60;;;9.50;99.90;;;;;;5093773;28;20365;-74
2022/05/28 01:32:54;;;;;;;6.85;1.10;;;9.40;99.90;;;;;;5085092;28;20123;-76
2022/05/28 01:35:22;;;;;;;7.25;0.60;;;9.50;99.90;;;;;;5072424;28;20041;-76
2022/05/28 01:37:50;;;;;;;5.93;0.52;;;9.40;99.90;;;;;;5071874;28;20051;-75
2022/05/28 01:40:18;;;;;;;7.47;0.60;;;9.40;99.90;;;;;;5073798;28;20063;-76
2022/05/28 01:42:49;;;;;;;8.02;0.68;;;9.40;99.90;;;;;;5088431;28;20052;-75
2022/05/28 01:45:17;;;;;;;6.35;0.70;;;9.30;99.90;;;;;;5072166;28;20041;-74
2022/05/28 01:47:44;;;;;;;7.75;0.98;;;9.30;99.90;;;;;;5088026;28;20052;-74
2022/05/28 01:50:13;;;;;;;6.10;0.50;;;9.30;99.90;;;;;;5071957;28;20048;-75
2022/05/28 01:52:40;;;;;;;7.80;0.73;;;9.30;99.90;;;;;;5071075;28;20478;-74
2022/05/28 01:55:07;;;;;;;;;;;9.20;99.90;;;;;;5089210;28;20507;-74
2022/05/28 01:57:33;;;;;;;7.53;1.23;;;9.20;99.90;;;;;;5071658;28;19927;-76
2022/05/28 01:59:59;;;;;;;6.00;0.60;;;9.20;99.90;;;;;;5072910;28;20036;-76
2022/05/28 02:02:24;;;;;;;9.68;1.38;;;9.10;99.90;;;;;;5071357;28;20392;-77
2022/05/28 02:04:50;;;;;;;9.38;1.58;;;9.10;99.90;;;;;;5072577;28;20071;-75
2022/05/28 02:07:18;;;;;;;5.55;0.57;;;9.10;99.90;;;;;;5070011;28;20127;-76
2022/05/28 02:09:52;;;;;;;10.93;0.60;;;9.10;99.90;;;;;;5072164;28;20128;-76
2022/05/28 02:12:38;;;;;;;10.13;0.70;;;9.10;99.90;;;;;;5087811;28;20049;-76
2022/05/28 02:15:28;;;;;;;8.13;0.50;;;9.10;99.90;;;;;;5072495;28;20060;-77
2022/05/28 02:18:13;;;;;;;10.40;0.70;;;9.10;99.90;;;;;;5053087;28;20291;-76
2022/05/28 02:21:04;;;;;;;11.63;0.70;;;9.00;99.90;;;;;;5071686;28;20484;-75
2022/05/28 02:23:41;;;;;;;7.75;0.70;;;9.10;99.90;;;;;;5069895;28;20517;-76
2022/05/28 02:26:12;;;;;;;7.97;0.60;;;9.10;99.90;;;;;;5072419;28;20116;-76
2022/05/28 02:28:39;;;;;;;8.23;0.70;;;9.10;99.90;;;;;;5071267;28;20051;-75
2022/05/28 02:31:23;;;;;;;10.27;0.80;;;9.00;99.90;;;;;;5076275;28;20178;-75
2022/05/28 02:33:49;;;;;;;9.00;0.90;;;9.00;99.90;;;;;;5058462;28;20040;-75
2022/05/28 02:36:16;;;;;;;6.28;0.60;;;9.00;99.90;;;;;;5074077;28;20045;-75
2022/05/28 02:38:42;;;;;;;15.88;2.55;;;9.00;99.90;;;;;;5071233;28;20044;-75
2022/05/28 02:41:08;;;;;;;11.35;1.35;;;9.10;99.90;;;;;;5073395;28;20048;-75
2022/05/28 02:43:34;;;;;;;8.88;0.80;;;9.10;99.90;;;;;;5071125;28;20075;-73
2022/05/28 02:46:05;;;;;;;8.43;0.70;;;9.10;99.90;;;;;;5071637;28;20175;-75
2022/05/28 02:48:32;;;;;;;9.52;0.73;;;9.10;99.90;;;;;;5070504;28;20054;-75
2022/05/28 02:51:05;;;;;;;9.60;1.20;;;9.10;99.90;;;;;;5070535;28;20113;-75
2022/05/28 02:53:31;;;;;;;10.68;0.60;;;9.00;99.90;;;;;;5069231;28;20311;-74
2022/05/28 02:55:56;;;;;;;5.50;0.68;;;8.90;99.90;;;;;;5071452;28;20040;-75
2022/05/28 02:58:22;;;;;;;7.70;0.80;;;8.90;99.90;;;;;;5071291;28;20040;-75
2022/05/28 03:00:48;;;;;;;12.13;1.00;;;8.90;99.90;;;;;;5070432;28;20064;-75
2022/05/28 03:03:19;;;;;;;9.57;1.80;;;8.90;99.90;;;;;;5090792;28;20131;-75
2022/05/28 03:05:49;;;;;;;9.98;1.15;;;8.90;99.90;;;;;;5108000;28;20053;-75
2022/05/28 03:08:15;;;;;;;9.38;0.85;;;8.90;99.90;;;;;;5090362;28;20062;-75
2022/05/28 03:10:41;;;;;;;11.83;1.00;;;8.90;99.90;;;;;;5078380;28;20066;-77
2022/05/28 03:13:07;;;;;;;8.10;0.65;;;8.80;99.90;;;;;;5091433;28;20126;-74
2022/05/28 03:15:34;;;;;;;14.45;0.82;;;8.80;99.90;;;;;;5091123;28;20471;-75
2022/05/28 03:17:59;;;;;;;4.22;0.68;;;8.70;99.90;;;;;;5090620;28;20051;-74
2022/05/28 03:20:29;;;;;;;11.48;0.90;;;8.70;99.90;;;;;;5090871;28;20427;-74
2022/05/28 03:22:56;;;;;;;6.50;0.70;;;8.70;99.90;;;;;;5090353;28;20182;-75
2022/05/28 03:25:22;;;;;;;10.05;0.80;;;8.80;99.90;;;;;;5090434;28;20048;-76
2022/05/28 03:27:48;;;;;;;7.35;0.68;;;8.80;99.90;;;;;;5091247;28;20082;-75
2022/05/28 03:30:14;;;;;;;7.68;0.70;;;8.80;99.90;;;;;;5060239;28;20430;-75
2022/05/28 03:32:40;;;;;;;8.63;0.70;;;8.70;99.90;;;;;;5077287;28;20044;-76
2022/05/28 03:35:06;;;;;;;13.40;0.70;;;8.70;99.90;;;;;;5077528;28;20043;-75
2022/05/28 03:37:32;;;;;;;10.57;1.00;;;8.80;99.90;;;;;;5094665;28;20107;-76
2022/05/28 03:39:58;;;;;;;7.70;0.80;;;8.70;99.90;;;;;;5096186;28;20083;-77
2022/05/28 03:42:23;;;;;;;6.95;0.73;;;8.70;99.90;;;;;;5096042;28;20503;-76
2022/05/28 03:44:49;;;;;;;10.18;0.98;;;8.80;99.90;;;;;;5094131;28;20105;-78
2022/05/28 03:47:15;;;;;;;10.48;0.90;;;8.80;99.90;;;;;;5063430;28;20072;-76
2022/05/28 03:49:43;;;;;;;13.55;1.10;;;8.80;99.90;;;;;;5091213;28;20052;-75
2022/05/28 03:52:09;;;;;;;13.50;1.00;;;8.80;99.90;;;;;;5073776;28;20135;-76
2022/05/28 03:54:34;;;;;;;14.23;1.27;;;8.80;99.90;;;;;;5076396;28;20056;-77
2022/05/28 03:57:08;;;;;;;15.60;1.23;;;8.80;99.90;;;;;;5075096;28;20062;-75
2022/05/28 03:59:34;;;;;;;9.85;0.93;;;8.80;99.90;;;;;;5058272;28;20373;-76
2022/05/28 04:02:01;;;;;;;7.20;1.15;;;8.80;99.90;;;;;;5074046;28;20449;-76
2022/05/28 04:04:26;;;;;;;7.60;0.73;;;8.80;99.90;;;;;;5076233;28;20428;-76
2022/05/28 04:06:52;;;;;;;15.88;1.25;;;8.80;99.90;;;;;;5057238;28;20095;-77
2022/05/28 04:09:18;;;;;;;11.80;1.08;;;8.80;99.90;;;;;;5077779;28;20059;-76
2022/05/28 04:11:44;;;;;;;20.25;1.13;;;8.90;99.90;;;;;;5077965;28;20051;-76
2022/05/28 04:14:10;;;;;;;15.93;0.70;;;9.00;99.90;;;;;;5076323;28;20303;-76
2022/05/28 04:16:37;;;;;;;12.02;0.95;;;9.10;99.90;;;;;;5076933;28;20151;-77
2022/05/28 04:19:03;;;;;;;8.98;0.88;;;9.10;99.90;;;;;;5077515;28;20075;-77
2022/05/28 04:21:29;;;;;;;17.23;1.33;;;9.20;99.90;;;;;;5078766;28;20047;-77
2022/05/28 04:23:55;;;;;;;7.88;0.80;;;9.30;99.90;;;;;;5076422;28;20342;-78
2022/05/28 04:26:21;;;;;;;12.27;1.00;;;9.30;99.90;;;;;;5078470;28;20087;-77
2022/05/28 04:28:46;;;;;;;9.63;0.90;;;9.30;99.90;;;;;;5079236;28;20102;-76
2022/05/28 04:31:12;;;;;;;9.90;0.82;;;9.30;99.90;;;;;;5078034;28;20266;-75
2022/05/28 04:33:38;;;;;;;12.75;0.85;;;9.40;99.90;;;;;;5079474;28;20044;-77
2022/05/28 04:36:04;;;;;;;10.18;0.75;;;9.40;99.90;;;;;;5078545;28;20373;-76
2022/05/28 04:38:30;;;;;;;10.43;0.88;;;9.40;99.90;;;;;;5060959;28;20047;-75
2022/05/28 04:40:55;;;;;;;13.68;0.85;;;9.40;99.90;;;;;;5080624;28;20120;-76
2022/05/28 04:43:21;;;;;;;9.18;1.02;;;9.40;99.90;;;;;;5081766;28;20045;-75
2022/05/28 04:45:47;;;;;;;15.57;0.90;;;9.50;99.90;;;;;;5080103;28;20425;-74
2022/05/28 04:48:14;;;;;;;16.45;1.17;;;9.50;99.90;;;;;;5080080;28;20083;-75
2022/05/28 04:50:40;;;;;;;11.67;0.90;;;9.60;99.90;;;;;;5079755;28;20049;-76
2022/05/28 04:53:05;;;;;;;9.18;1.20;;;9.70;99.90;;;;;;5077125;28;20315;-76
2022/05/28 04:55:32;;;;;;;10.43;1.05;;;9.70;99.90;;;;;;5077756;28;20182;-76
2022/05/28 04:57:57;;;;;;;9.97;0.90;;;9.80;99.90;;;;;;5078974;28;20041;-75
2022/05/28 05:00:25;;;;;;;13.23;1.00;;;9.90;99.90;;;;;;5079903;28;20128;-76
2022/05/28 05:02:51;;;;;;;10.07;0.85;;;9.90;99.90;;;;;;5093968;28;20048;-76
2022/05/28 05:05:18;;;;;;;10.73;1.13;;;10.00;99.90;;;;;;5096148;28;20078;-75
2022/05/28 05:07:44;;;;;;;7.25;1.05;;;10.00;99.90;;;;;;5094783;28;20063;-76
2022/05/28 05:10:10;;;;;;;18.27;1.35;;;10.10;99.90;;;;;;5095205;28;20048;-76
2022/05/28 05:12:36;;;;;;;13.02;0.93;;;10.20;99.90;;;;;;5097867;28;20047;-74
2022/05/28 05:15:02;;;;;;;11.18;1.00;;;10.20;99.90;;;;;;5095947;28;20055;-74
2022/05/28 05:17:28;;;;;;;13.77;1.50;;;10.30;99.90;;;;;;5096641;28;20056;-75
2022/05/28 05:19:53;;;;;;;8.35;1.10;;;10.40;99.90;;;;;;5097243;28;20106;-76
2022/05/28 05:22:19;;;;;;;12.40;1.38;;;10.50;99.90;;;;;;5078387;28;20048;-77
2022/05/28 05:24:45;;;;;;;11.90;1.20;;;10.50;99.90;;;;;;5096380;28;20137;-75
2022/05/28 05:27:11;;;;;;;15.18;1.20;;;10.50;99.90;;;;;;5094800;28;20036;-76
2022/05/28 05:29:38;;;;;;;11.27;1.25;;;10.60;99.90;;;;;;5094616;28;20352;-76
2022/05/28 05:32:05;;;;;;;20.33;1.60;;;10.60;99.90;;;;;;5094899;28;20147;-75
2022/05/28 05:34:31;;;;;;;12.48;0.90;;;10.60;99.90;;;;;;5095902;28;20078;-76
2022/05/28 05:36:56;;;;;;;16.75;1.60;;;10.70;99.90;;;;;;5094203;28;20464;-76
2022/05/28 05:39:22;;;;;;;15.88;1.90;;;10.70;99.90;;;;;;5093505;28;20050;-76
2022/05/28 05:41:48;;;;;;;14.38;1.40;;;10.80;99.90;;;;;;5095039;28;20048;-76
2022/05/28 05:44:14;;;;;;;13.13;1.27;;;10.80;99.90;;;;;;5060633;28;20052;-75
2022/05/28 05:46:42;;;;;;;10.55;1.13;;;10.90;99.90;;;;;;5094417;28;20048;-78
2022/05/28 05:49:08;;;;;;;12.98;1.85;;;11.00;99.90;;;;;;5075250;28;20132;-76
2022/05/28 05:51:39;;;;;;;11.00;1.27;;;11.00;99.90;;;;;;5092393;28;20048;-75
2022/05/28 05:54:05;;;;;;;14.88;0.95;;;11.00;99.90;;;;;;5091468;28;20177;-77
2022/05/28 05:56:31;;;;;;;16.42;1.60;;;11.20;99.90;;;;;;5093481;28;20487;-76
2022/05/28 05:58:57;;;;;;;15.30;1.10;;;11.20;99.90;;;;;;5095032;28;20044;-75
2022/05/28 06:01:24;;;;;;;16.75;1.55;;;11.20;99.90;;;;;;5097526;28;20213;-77
2022/05/28 06:03:50;;;;;;;11.18;1.65;;;11.30;99.90;;;;;;5096464;28;20051;-76
2022/05/28 06:06:17;;;;;;;16.13;1.63;;;11.40;99.90;;;;;;5095972;28;20124;-76
2022/05/28 06:08:44;;;;;;;16.92;1.42;;;11.50;99.90;;;;;;5093606;28;20059;-77
2022/05/28 06:11:10;;;;;;;12.93;0.95;;;11.70;99.90;;;;;;5093756;28;20053;-78
2022/05/28 06:13:36;;;;;;;13.57;1.40;;;11.70;99.90;;;;;;5092839;28;20614;-77
2022/05/28 06:16:02;;;;;;;14.90;1.33;;;11.70;99.90;;;;;;5092845;28;20060;-77
2022/05/28 06:18:28;;;;;;;12.88;0.90;;;11.60;99.90;;;;;;5091717;28;20044;-78
2022/05/28 06:20:55;;;;;;;13.70;1.00;;;11.70;99.90;;;;;;5092404;28;20116;-78
2022/05/28 06:23:20;;;;;;;16.05;1.60;;;11.50;99.90;;;;;;5074837;28;20044;-76
2022/05/28 06:25:46;;;;;;;11.60;1.13;;;10.90;99.90;;;;;;5073284;28;20045;-76
2022/05/28 06:28:12;;;;;;;18.08;1.80;;;10.90;99.90;;;;;;5070568;28;20477;-76
2022/05/28 06:30:40;;;;;;;13.13;1.50;;;10.70;99.90;;;;;;5070896;28;20048;-76
2022/05/28 06:33:06;;;;;;;12.07;1.85;;;10.60;99.90;;;;;;5087399;28;20120;-76
2022/05/28 06:35:33;;;;;;;16.95;1.77;;;10.60;99.90;;;;;;5072136;28;20468;-76
2022/05/28 06:37:58;;;;;;;17.87;1.20;;;10.70;99.90;;;;;;5069673;28;20075;-76
2022/05/28 06:40:25;;;;;;;10.18;1.30;;;10.70;99.90;;;;;;5070629;28;20045;-76
2022/05/28 06:42:51;;;;;;;10.77;1.10;;;10.80;99.90;;;;;;5070895;28;20448;-75
2022/05/28 06:45:18;;;;;;;11.48;1.23;;;10.90;99.90;;;;;;5059920;28;20044;-76
2022/05/28 06:47:45;;;;;;;7.20;1.05;;;10.70;99.90;;;;;;5078564;28;20116;-76
2022/05/28 06:52:58;;;;;;;9.55;1.20;;;10.40;99.90;;;;;;5057545;28;20088;-76
2022/05/28 06:55:24;;;;;;;11.67;0.93;;;10.20;99.90;;;;;;5072456;28;20049;-77
2022/05/28 06:57:50;;;;;;;12.85;1.35;;;10.30;99.90;;;;;;5071928;28;20059;-76
2022/05/28 07:00:17;;;;;;;8.57;1.20;;;10.40;99.90;;;;;;5070911;28;20084;-76
2022/05/28 07:02:43;;;;;;;11.07;1.13;;;10.40;99.90;;;;;;5071749;28;20336;-76
2022/05/28 07:05:11;;;;;;;9.57;1.23;;;10.60;99.90;;;;;;5071625;28;20044;-75
2022/05/28 07:07:37;;;;;;;12.70;1.35;;;10.70;99.90;;;;;;5070937;28;20040;-76
2022/05/28 07:10:03;;;;;;;18.67;1.98;;;10.80;99.90;;;;;;5071885;28;20048;-75
2022/05/28 07:12:29;;;;;;;13.52;1.13;;;11.00;99.90;;;;;;5069351;28;20044;-75
2022/05/28 07:14:56;;;;;;;16.67;1.83;;;11.20;99.90;;;;;;5071384;28;20110;-76
2022/05/28 07:17:22;;;;;;;11.80;1.35;;;11.30;99.90;;;;;;5076164;28;20060;-77
2022/05/28 07:19:49;;;;;;;11.30;1.10;;;11.50;99.90;;;;;;5077014;28;20488;-78
2022/05/28 07:22:15;;;;;;;10.75;1.50;;;11.80;99.90;;;;;;5076917;28;20075;-75
2022/05/28 07:24:41;;;;;;;14.30;2.00;;;12.20;99.90;;;;;;5077928;28;20052;-76
2022/05/28 07:27:07;;;;;;;13.55;1.55;;;12.50;99.90;;;;;;5079088;28;20048;-78
2022/05/28 07:29:33;;;;;;;14.32;1.50;;;12.50;99.90;;;;;;5058784;28;20270;-75
2022/05/28 07:32:05;;;;;;;13.80;1.50;;;12.60;99.90;;;;;;5069757;28;20078;-75
2022/05/28 07:34:31;;;;;;;10.60;1.33;;;12.60;99.90;;;;;;5053488;28;20087;-77
2022/05/28 07:36:57;;;;;;;14.55;1.52;;;12.60;99.90;;;;;;5070572;28;20055;-77
2022/05/28 07:39:23;;;;;;;19.23;2.10;;;12.40;99.90;;;;;;5054623;28;20056;-76
2022/05/28 07:41:49;;;;;;;13.10;1.27;;;12.30;99.90;;;;;;5070374;28;20040;-76
2022/05/28 07:44:15;;;;;;;15.13;1.35;;;12.30;99.90;;;;;;5071344;28;20060;-74
2022/05/28 07:46:41;;;;;;;9.70;1.40;;;12.50;99.90;;;;;;5069775;28;20382;-78
2022/05/28 07:49:08;;;;;;;15.60;1.50;;;12.60;99.90;;;;;;5053830;28;20055;-76
2022/05/28 07:51:35;;;;;;;15.13;1.95;;;12.80;99.90;;;;;;5069701;28;20222;-77
2022/05/28 07:54:02;;;;;;;16.92;1.35;;;12.80;99.90;;;;;;5071659;28;20098;-77
2022/05/28 07:56:28;;;;;;;17.52;1.77;;;12.90;99.90;;;;;;5069600;28;20448;-77
2022/05/28 07:58:59;;;;;;;17.75;1.80;;;12.80;99.90;;;;;;5070579;28;20083;-78
2022/05/28 08:01:28;;;;;;;10.73;1.33;;;12.80;99.90;;;;;;5071599;28;20152;-77
2022/05/28 08:03:55;;;;;;;10.75;1.30;;;12.50;99.90;;;;;;5070238;28;20127;-77
2022/05/28 08:06:21;;;;;;;;;;;12.60;99.90;;;;;;5070515;28;20045;-77
2022/05/28 08:08:53;;;;;;;12.07;1.25;;;12.50;99.90;;;;;;5086311;28;19963;-77
2022/05/28 08:11:22;;;;;;;13.25;1.35;;;12.50;99.90;;;;;;5070040;28;20093;-77
2022/05/28 08:13:49;;;;;;;10.65;1.20;;;12.40;99.90;;;;;;5071011;28;20100;-77
2022/05/28 08:16:15;;;;;;;12.18;1.45;;;12.40;99.90;;;;;;5071247;28;20044;-76
2022/05/28 08:18:41;;;;;;;14.17;1.50;;;12.50;99.90;;;;;;5074376;28;20040;-77
2022/05/28 08:23:53;;;;;;;14.85;1.38;;;12.50;99.90;;;;;;5073735;28;20049;-78
2022/05/28 08:26:20;;;;;;;13.52;1.33;;;12.80;99.90;;;;;;5073446;28;20373;-76
2022/05/28 08:28:47;;;;;;;15.68;2.53;;;12.60;99.90;;;;;;5074654;28;20052;-75
2022/05/28 08:31:13;;;;;;;9.98;1.13;;;12.70;99.90;;;;;;5075967;28;20049;-75
2022/05/28 08:33:40;;;;;;;14.93;2.00;;;13.00;99.90;;;;;;5073070;28;20045;-76
2022/05/28 08:36:06;;;;;;;10.05;0.82;;;13.20;99.90;;;;;;5073928;28;20052;-77
2022/05/28 08:38:32;;;;;;;10.80;2.17;;;13.50;99.90;;;;;;5056820;28;20044;-75
2022/05/28 08:41:15;;;;;;;16.73;1.50;;;13.70;99.90;;;;;;5074804;28;20373;-78
2022/05/28 08:43:53;;;;;;;17.45;1.45;;;14.00;99.90;;;;;;5074049;28;20114;-76
2022/05/28 08:46:23;;;;;;;14.55;1.30;;;14.10;99.90;;;;;;5058940;28;20078;-77
2022/05/28 08:48:54;;;;;;;16.52;1.52;;;14.00;99.90;;;;;;5073492;28;20045;-78
2022/05/28 08:51:41;;;;;;;12.48;1.52;;;13.80;99.90;;;;;;5075264;28;20141;-75
2022/05/28 08:54:22;;;;;;;11.77;1.10;;;13.70;99.90;;;;;;5074502;28;20119;-77
2022/05/28 08:56:50;;;;;;;12.15;1.20;;;13.80;99.90;;;;;;5074057;28;20051;-76
2022/05/28 08:59:23;;;;;;;15.82;1.77;;;13.90;99.90;;;;;;5074744;28;20045;-78
2022/05/28 09:01:51;;;;;;;18.58;1.50;;;14.00;99.90;;;;;;5077069;28;20051;-78
2022/05/28 09:04:24;;;;;;;11.32;1.77;;;13.90;99.90;;;;;;5077181;28;20167;-78
2022/05/28 09:06:53;;;;;;;16.05;1.85;;;14.10;99.90;;;;;;5075436;28;20537;-78
2022/05/28 09:09:34;;;;;;;11.30;1.33;;;14.20;99.90;;;;;;5077124;28;20082;-78
2022/05/28 09:12:07;;;;;;;12.70;1.30;;;14.40;99.90;;;;;;5075137;28;20144;-76
2022/05/28 09:14:36;;;;;;;12.35;1.58;;;14.40;99.90;;;;;;5075241;28;20060;-78
2022/05/28 09:17:34;;;;;;;8.65;0.77;;;14.10;99.90;;;;;;5078622;28;20163;-78
2022/05/28 09:20:05;;;;;;;16.80;1.67;;;14.20;99.90;;;;;;5077784;28;20054;-78
2022/05/28 09:22:31;;;;;;;12.43;1.50;;;14.30;99.90;;;;;;5059036;28;20049;-78
2022/05/28 09:24:57;;;;;;;10.98;1.20;;;14.30;99.90;;;;;;5083609;28;20048;-77
2022/05/28 09:27:34;;;;;;;12.02;1.02;;;14.40;99.90;;;;;;5058908;28;20449;-78
2022/05/28 09:30:19;;;;;;;;;;;14.70;99.90;;;;;;5076050;28;20045;-78
2022/05/28 09:33:03;;;;;;;10.68;1.50;;;14.80;99.90;;;;;;5081096;28;19920;-80
2022/05/28 09:35:41;;;;;;;10.57;1.13;;;14.50;99.90;;;;;;5095677;28;20108;-78
2022/05/28 09:38:21;;;;;;;17.33;1.67;;;14.50;99.90;;;;;;5075373;28;20573;-77
2022/05/28 09:40:52;;;;;;;12.77;1.60;;;14.70;99.90;;;;;;5092236;28;20056;-77
2022/05/28 09:43:18;;;;;;;13.27;1.95;;;14.80;99.90;;;;;;5094018;28;20071;-76
2022/05/28 09:46:12;;;;;;;16.75;1.58;;;14.80;99.90;;;;;;5093717;28;20086;-77
2022/05/28 09:48:38;;;;;;;13.02;1.50;;;14.80;99.90;;;;;;5094332;28;20052;-77
2022/05/28 09:51:19;;;;;;;13.07;1.70;;;14.40;99.90;;;;;;5094253;28;20117;-76
2022/05/28 09:56:38;;;;;;;16.02;1.30;;;13.90;99.90;;;;;;5096446;28;20071;-75
2022/05/28 09:59:18;;;;;;;17.83;2.05;;;14.20;99.90;;;;;;5096272;28;20129;-76
2022/05/28 10:02:10;;;;;;;12.65;1.27;;;14.30;99.90;;;;;;5094121;28;20091;-76
2022/05/28 10:05:14;;;;;;;11.95;1.23;;;14.60;99.90;;;;;;5097344;28;20059;-78
2022/05/28 10:07:45;;;;;;;10.63;1.30;;;14.90;99.10;;;;;;5095619;28;20044;-78
2022/05/28 10:10:28;;;;;;;12.85;1.30;;;14.90;99.80;;;;;;5077811;28;20126;-78
2022/05/28 10:13:13;;;;;;;12.90;1.13;;;14.80;98.80;;;;;;5094516;28;20131;-77
2022/05/28 10:16:00;;;;;;;17.48;1.38;;;14.90;97.20;;;;;;5096376;28;20059;-78
2022/05/28 10:18:34;;;;;;;12.85;2.08;;;15.40;97.10;;;;;;5095743;28;20048;-77
2022/05/28 10:21:10;;;;;;;11.43;0.93;;;15.30;96.70;;;;;;5094363;28;20048;-78
2022/05/28 10:23:39;;;;;;;10.60;0.90;;;15.50;96.50;;;;;;5069924;28;20045;-79
2022/05/28 10:26:10;;;;;;;10.85;1.20;;;15.70;94.60;;;;;;5075049;28;20044;-77
2022/05/28 10:28:53;;;;;;;18.38;1.40;;;15.80;95.60;;;;;;5075003;28;20148;-77
2022/05/28 10:31:34;;;;;;;10.95;1.15;;;16.10;96.50;;;;;;5075056;28;20045;-77
2022/05/28 10:34:00;;;;;;;11.48;1.00;;;15.90;95.00;;;;;;5073043;28;20071;-77
2022/05/28 10:36:32;;;;;;;8.07;0.85;;;16.00;95.50;;;;;;5071066;28;20049;-78
2022/05/28 10:39:10;;;;;;;13.50;1.20;;;15.70;94.00;;;;;;5053810;28;20106;-77
2022/05/28 10:41:37;;;;;;;9.27;0.80;;;14.90;92.90;;;;;;5070521;28;20060;-77
2022/05/28 10:44:04;;;;;;;;;;;15.20;94.40;;;;;;5072638;28;20431;-78
2022/05/28 10:46:55;;;;;;;;;;;15.30;95.40;;;;;;5071370;28;19970;-75
2022/05/28 10:49:49;;;;;;;10.07;0.93;;;15.10;94.80;;;;;;5072259;28;19920;-78
2022/05/28 10:52:45;;;;;;;6.60;0.90;;;15.20;93.40;;;;;;5071907;28;20073;-78
2022/05/28 10:55:50;;;;;;;11.40;1.40;;;15.10;91.50;;;;;;5073482;28;20059;-77
2022/05/28 10:58:33;;;;;;;12.50;1.15;;;15.10;91.90;;;;;;5062829;28;20059;-79
2022/05/28 11:01:01;;;;;;;10.30;1.20;;;14.90;92.10;;;;;;5077333;28;20044;-77
2022/05/28 11:03:45;;;;;;;10.70;1.13;;;15.40;93.50;;;;;;5074999;28;20068;-77
2022/05/28 11:06:33;;;;;;;15.65;1.40;;;15.40;93.00;;;;;;5075345;28;20048;-77
2022/05/28 11:09:27;;;;;;;12.07;1.02;;;15.50;93.50;;;;;;5072464;28;20048;-78
2022/05/28 11:12:13;;;;;;;12.65;1.15;;;15.60;93.10;;;;;;5073180;28;20049;-77
2022/05/28 11:15:10;;;;;;;11.82;1.13;;;15.50;91.80;;;;;;5013174;28;20048;-78
2022/05/28 11:17:45;;;;;;;10.57;1.05;;;15.10;91.30;;;;;;5087357;28;20048;-80
2022/05/28 11:20:32;;;;;;;14.88;1.65;;;15.60;91.90;;;;;;5056323;28;20044;-79
2022/05/28 11:23:33;;;;;;;8.77;1.02;;;15.60;92.30;;;;;;5088520;28;20048;-79
2022/05/28 11:26:20;;;;;;;12.98;1.33;;;15.70;92.60;;;;;;5089229;28;20103;-76
2022/05/28 11:28:58;;;;;;;10.43;0.95;;;15.80;93.20;;;;;;5054756;28;20044;-78
2022/05/28 11:31:50;;;;;;;13.13;1.20;;;15.70;92.60;;;;;;5073986;28;20062;-78
2022/05/28 11:34:37;;;;;;;11.48;1.48;;;15.10;90.20;;;;;;5092286;28;20112;-78
2022/05/28 11:37:05;;;;;;;;;;;15.20;89.50;;;;;;5091839;28;20087;-79
2022/05/28 11:39:38;;;;;;;9.43;0.88;;;15.70;90.60;;;;;;5092825;28;19927;-76
2022/05/28 11:42:24;;;;;;;10.55;1.42;;;15.80;90.10;;;;;;5074659;28;20567;-76
2022/05/28 11:44:56;;;;;;;;;;;15.40;90.80;;;;;;5092409;28;20048;-78
2022/05/28 11:47:41;;;;;;;14.95;1.00;;;15.40;91.40;;;;;;5092841;28;20009;-80
2022/05/28 11:53:37;;;;;;;15.73;1.23;;;15.10;92.60;;;;;;5096131;28;20048;-76
2022/05/28 11:56:13;;;;;;;17.75;1.65;;;14.80;93.20;;;;;;5096559;28;20036;-76
2022/05/28 11:58:52;;;;;;;13.63;1.42;;;14.70;93.30;;;;;;5098800;28;20048;-76
2022/05/28 12:01:30;;;;;;;12.27;1.17;;;14.80;93.30;;;;;;5116448;28;20135;-78
2022/05/28 12:03:57;;;;;;;15.05;2.10;;;14.60;93.50;;;;;;5100076;28;20168;-76
2022/05/28 12:06:26;;;;;;;;;;;14.70;94.10;;;;;;5103246;28;20381;-77
2022/05/28 12:09:20;;;;;;;14.57;1.27;;;14.20;94.30;;;;;;5100306;28;19963;-77
2022/05/28 12:12:11;;;;;;;11.60;1.33;;;14.70;94.50;;;;;;5081509;28;20074;-78
2022/05/28 12:14:39;;;;;;;16.17;1.40;;;14.70;94.10;;;;;;5098618;28;20055;-78
2022/05/28 12:17:10;;;;;;;11.18;1.52;;;14.80;93.60;;;;;;5098965;28;20048;-78
2022/05/28 12:20:06;;;;;;;10.95;1.17;;;15.30;93.50;;;;;;5098593;28;20069;-78
2022/05/28 12:23:00;;;;;;;;;;;15.40;92.80;;;;;;5076841;28;20052;-79
2022/05/28 12:25:29;;;;;;;12.88;1.20;;;15.10;91.80;;;;;;5072921;28;19920;-78
2022/05/28 12:27:55;;;;;;;9.63;1.88;;;15.60;92.30;;;;;;5074895;28;20082;-78
2022/05/28 12:30:37;;;;;;;15.15;1.73;;;15.60;92.90;;;;;;5077049;28;20388;-78
2022/05/28 12:33:04;;;;;;;13.32;1.10;;;15.60;92.40;;;;;;5074913;28;20507;-79
2022/05/28 12:35:41;;;;;;;10.18;1.20;;;15.30;90.50;;;;;;5057227;28;20477;-77
2022/05/28 12:38:08;;;;;;;19.08;1.30;;;15.40;90.90;;;;;;5073040;28;20131;-78
2022/05/28 12:40:51;;;;;;;19.30;1.63;;;15.10;92.50;;;;;;5075861;28;20048;-79
2022/05/28 12:43:38;;;;;;;13.02;1.30;;;14.70;93.20;;;;;;5075127;28;20043;-78
2022/05/28 12:46:15;;;;;;;;;;;14.80;93.10;;;;;;5075326;28;20101;-77
2022/05/28 12:48:42;;;;;;;11.85;1.15;;;14.50;93.80;;;;;;5057070;28;19920;-77
2022/05/28 12:51:36;;;;;;;13.05;1.30;;;14.40;93.40;;;;;;5073183;28;20433;-76
2022/05/28 12:54:05;;;;;;;17.90;1.50;;;14.60;93.60;;;;;;5073519;28;20124;-77
2022/05/28 12:56:34;;;;;;;15.00;1.77;;;14.50;93.80;;;;;;5057356;28;20060;-75
2022/05/28 12:59:27;;;;;;;12.80;1.80;;;14.50;93.90;;;;;;5073372;28;20140;-78
2022/05/28 13:01:58;;;;;;;12.43;1.42;;;14.70;91.10;;;;;;5089011;28;20124;-80
2022/05/28 13:04:28;;;;;;;12.80;1.17;;;15.10;91.50;;;;;;5074737;28;20102;-77
2022/05/28 13:06:58;;;;;;;11.32;1.30;;;15.50;92.20;;;;;;5071661;28;20544;-78
2022/05/28 13:09:29;;;;;;;13.10;1.45;;;16.00;92.30;;;;;;5074549;28;20089;-78
2022/05/28 13:12:10;;;;;;;8.93;0.90;;;16.10;90.20;;;;;;5072663;28;20056;-76
2022/05/28 13:14:36;;;;;;;8.93;1.33;;;16.00;88.20;;;;;;5073473;28;20063;-76
2022/05/28 13:17:11;;;;;;;9.50;0.90;;;16.40;89.10;;;;;;5073720;28;20056;-76
2022/05/28 13:20:06;;;;;;;9.40;1.10;;;16.20;86.60;;;;;;5057033;28;20067;-76